PWSweather.com
Personal Weather Stations
Station Observations
WISCHPK61
Green Bay Schmitt Park, Green Bay, WI 54311

Green Bay Schmitt ParkGreen Bay, WI 54311

Lat: 44.514277, Lon: -87.935067

Elevation: 735

Station Type: Acu Rite Pro Weather Center model 02032C

http://greenbayweathercam.com

High Low Average
Temperature 19.9°F-6.7°C 4.8°F-15.1°C 12.5°F-10.8°C
Dew Point 16.8°F-8.4°C 0.7°F-17.4°C 7.2°F-13.8°C
Winds 3.5 mph 5.6 kmh Calm Calm 1.0 mph WSW1.6 kmh WSW
Wind Gusts 6.9 mph11.1 kmh -- 2.0 mph3.2 kmh
Humidity 92% 59% 80%
Pressure 29.74 in1007.1 mb 29.22 in989.5 mb -
Precipitation 0.00 in0.0 mm - -
Hour Temp Dew Point Humidity Winds Wind Gusts Pressure Precip Precip Rate Daily Precip Total
12:00 AM 21.4°F-5.9°C 19.7°F-6.8°C 93% Calm Calm 1.2 mph1.9 kmh 29.18 in988.1 mb - 0.00 in0.0 mm 0.18 in4.6 mm
12:15 AM 20.7°F-6.3°C 18.8°F-7.3°C 92% 2.3 mph NW3.7 kmh NW 5.8 mph9.3 kmh 29.19 in988.5 mb - 0.00 in0.0 mm 0.18 in4.6 mm
12:30 AM 20.1°F-6.6°C 18.1°F-7.7°C 92% 2.3 mph S3.7 kmh S 5.8 mph9.3 kmh 29.20 in988.8 mb - 0.00 in0.0 mm 0.18 in4.6 mm
12:45 AM 19.4°F-7.0°C 16.9°F-8.4°C 90% 1.2 mph W1.9 kmh W 2.3 mph3.7 kmh 29.21 in989.2 mb - 0.00 in0.0 mm 0.18 in4.6 mm
01:00 AM 19.0°F-7.2°C 16.6°F-8.6°C 90% Calm Calm 1.2 mph1.9 kmh 29.22 in989.5 mb - 0.00 in0.0 mm 0.00 in0.0 mm
01:15 AM 18.7°F-7.4°C 16.8°F-8.4°C 92% 2.3 mph SSW3.7 kmh SSW 3.5 mph5.6 kmh 29.23 in989.8 mb - 0.00 in0.0 mm 0.00 in0.0 mm
01:30 AM 18.3°F-7.6°C 16.4°F-8.7°C 92% Calm Calm -- 29.23 in989.8 mb - 0.00 in0.0 mm 0.00 in0.0 mm
01:45 AM 18.0°F-7.8°C 16.1°F-8.8°C 92% 2.3 mph N3.7 kmh N 5.8 mph9.3 kmh 29.23 in989.8 mb - 0.00 in0.0 mm 0.00 in0.0 mm
02:00 AM 17.4°F-8.1°C 14.7°F-9.6°C 89% Calm Calm 1.2 mph1.9 kmh 29.25 in990.5 mb - 0.00 in0.0 mm 0.00 in0.0 mm
02:15 AM 16.9°F-8.4°C 14.0°F-10.0°C 88% Calm Calm 2.3 mph3.7 kmh 29.27 in991.2 mb - 0.00 in0.0 mm 0.00 in0.0 mm
02:30 AM 16.5°F-8.6°C 13.6°F-10.2°C 88% 1.2 mph WNW1.9 kmh WNW 1.2 mph1.9 kmh 29.27 in991.2 mb - 0.00 in0.0 mm 0.00 in0.0 mm
02:45 AM 16.5°F-8.6°C 14.1°F-9.9°C 90% Calm Calm 2.3 mph3.7 kmh 29.27 in991.2 mb - 0.00 in0.0 mm 0.00 in0.0 mm
03:00 AM 16.1°F-8.8°C 13.4°F-10.3°C 89% 1.2 mph NW1.9 kmh NW 2.3 mph3.7 kmh 29.29 in991.9 mb - 0.00 in0.0 mm 0.00 in0.0 mm
03:15 AM 15.6°F-9.1°C 12.9°F-10.6°C 89% Calm Calm -- 29.31 in992.6 mb - 0.00 in0.0 mm 0.00 in0.0 mm
03:30 AM 15.4°F-9.2°C 13.0°F-10.6°C 90% 1.2 mph NNW1.9 kmh NNW 2.3 mph3.7 kmh 29.32 in992.9 mb - 0.00 in0.0 mm 0.00 in0.0 mm
03:45 AM 15.3°F-9.3°C 12.4°F-10.9°C 88% 2.3 mph SW3.7 kmh SW 2.3 mph3.7 kmh 29.32 in992.9 mb - 0.00 in0.0 mm 0.00 in0.0 mm
04:00 AM 15.1°F-9.4°C 11.9°F-11.2°C 87% 2.3 mph NNW3.7 kmh NNW 2.3 mph3.7 kmh 29.33 in993.2 mb - 0.00 in0.0 mm 0.00 in0.0 mm
04:15 AM 14.9°F-9.5°C 12.0°F-11.1°C 88% 2.3 mph NNW3.7 kmh NNW 4.6 mph7.4 kmh 29.35 in993.9 mb - 0.00 in0.0 mm 0.00 in0.0 mm
04:30 AM 14.9°F-9.5°C 11.7°F-11.3°C 87% 1.2 mph N1.9 kmh N 2.3 mph3.7 kmh 29.35 in993.9 mb - 0.00 in0.0 mm 0.00 in0.0 mm
04:45 AM 14.7°F-9.6°C 11.5°F-11.4°C 87% 2.3 mph NW3.7 kmh NW 2.3 mph3.7 kmh 29.36 in994.2 mb - 0.00 in0.0 mm 0.00 in0.0 mm
05:00 AM 14.4°F-9.8°C 11.2°F-11.6°C 87% 1.2 mph NW1.9 kmh NW 2.3 mph3.7 kmh 29.36 in994.2 mb - 0.00 in0.0 mm 0.00 in0.0 mm
05:15 AM 14.4°F-9.8°C 11.5°F-11.4°C 88% 1.2 mph WNW1.9 kmh WNW 3.5 mph5.6 kmh 29.36 in994.2 mb - 0.00 in0.0 mm 0.00 in0.0 mm
05:30 AM 14.2°F-9.9°C 11.0°F-11.7°C 87% 2.3 mph NNW3.7 kmh NNW 4.6 mph7.4 kmh 29.36 in994.2 mb - 0.00 in0.0 mm 0.00 in0.0 mm
05:45 AM 14.2°F-9.9°C 11.0°F-11.7°C 87% Calm Calm -- 29.37 in994.6 mb - 0.00 in0.0 mm 0.00 in0.0 mm
06:00 AM 14.2°F-9.9°C 11.6°F-11.3°C 89% Calm Calm 1.2 mph1.9 kmh 29.37 in994.6 mb - 0.00 in0.0 mm 0.00 in0.0 mm
06:15 AM 13.8°F-10.1°C 10.9°F-11.7°C 88% 1.2 mph E1.9 kmh E 2.3 mph3.7 kmh 29.38 in994.9 mb - 0.00 in0.0 mm 0.00 in0.0 mm
06:30 AM 13.6°F-10.2°C 10.7°F-11.8°C 88% Calm Calm -- 29.38 in994.9 mb - 0.00 in0.0 mm 0.00 in0.0 mm
06:45 AM 13.6°F-10.2°C 10.9°F-11.7°C 89% 1.2 mph WNW1.9 kmh WNW 4.6 mph7.4 kmh 29.39 in995.3 mb - 0.00 in0.0 mm 0.00 in0.0 mm
07:00 AM 12.9°F-10.6°C 9.2°F-12.7°C 85% Calm Calm 2.3 mph3.7 kmh 29.40 in995.6 mb - 0.00 in0.0 mm 0.00 in0.0 mm
07:15 AM 12.4°F-10.9°C 9.3°F-12.6°C 87% 1.2 mph WSW1.9 kmh WSW 1.2 mph1.9 kmh 29.43 in996.6 mb - 0.00 in0.0 mm 0.00 in0.0 mm
07:30 AM 12.4°F-10.9°C 8.7°F-12.9°C 85% 1.2 mph NW1.9 kmh NW 2.3 mph3.7 kmh 29.43 in996.6 mb - 0.00 in0.0 mm 0.00 in0.0 mm
07:45 AM 12.4°F-10.9°C 8.7°F-12.9°C 85% Calm Calm 1.2 mph1.9 kmh 29.43 in996.6 mb - 0.00 in0.0 mm 0.00 in0.0 mm
08:00 AM 12.4°F-10.9°C 9.0°F-12.8°C 86% 3.5 mph NW5.6 kmh NW 5.8 mph9.3 kmh 29.44 in997.0 mb - 0.00 in0.0 mm 0.00 in0.0 mm
08:15 AM 12.0°F-11.1°C 8.4°F-13.1°C 85% 2.3 mph E3.7 kmh E 4.6 mph7.4 kmh 29.45 in997.3 mb - 0.00 in0.0 mm 0.00 in0.0 mm
08:30 AM 11.8°F-11.2°C 8.4°F-13.1°C 86% Calm Calm 1.2 mph1.9 kmh 29.45 in997.3 mb - 0.00 in0.0 mm 0.00 in0.0 mm
08:45 AM 11.3°F-11.5°C 8.2°F-13.2°C 87% Calm Calm 1.2 mph1.9 kmh 29.47 in998.0 mb - 0.00 in0.0 mm 0.00 in0.0 mm
09:00 AM 11.1°F-11.6°C 7.7°F-13.5°C 86% Calm Calm 4.6 mph7.4 kmh 29.48 in998.3 mb - 0.00 in0.0 mm 0.00 in0.0 mm
09:15 AM 10.8°F-11.8°C 7.2°F-13.8°C 85% 3.5 mph NW5.6 kmh NW 4.6 mph7.4 kmh 29.49 in998.6 mb - 0.00 in0.0 mm 0.00 in0.0 mm
09:30 AM 10.6°F-11.9°C 7.0°F-13.9°C 85% 1.2 mph WSW1.9 kmh WSW 4.6 mph7.4 kmh 29.51 in999.3 mb - 0.00 in0.0 mm 0.00 in0.0 mm
09:45 AM 10.6°F-11.9°C 6.7°F-14.1°C 84% 1.2 mph SSW1.9 kmh SSW 2.3 mph3.7 kmh 29.52 in999.7 mb - 0.00 in0.0 mm 0.00 in0.0 mm
10:00 AM 10.9°F-11.7°C 6.5°F-14.2°C 82% 1.2 mph SW1.9 kmh SW 1.2 mph1.9 kmh 29.52 in999.7 mb - 0.00 in0.0 mm 0.00 in0.0 mm
10:15 AM 11.3°F-11.5°C 6.9°F-13.9°C 82% Calm Calm 1.2 mph1.9 kmh 29.54 in1000.3 mb - 0.00 in0.0 mm 0.00 in0.0 mm
10:30 AM 11.3°F-11.5°C 5.8°F-14.6°C 78% 2.3 mph N3.7 kmh N 3.5 mph5.6 kmh 29.55 in1000.7 mb - 0.00 in0.0 mm 0.00 in0.0 mm
10:45 AM 11.3°F-11.5°C 5.5°F-14.7°C 77% 2.3 mph NW3.7 kmh NW 2.3 mph3.7 kmh 29.55 in1000.7 mb - 0.00 in0.0 mm 0.00 in0.0 mm
11:00 AM 11.8°F-11.2°C 6.2°F-14.3°C 78% Calm Calm -- 29.56 in1001.0 mb - 0.00 in0.0 mm 0.00 in0.0 mm
11:15 AM 11.9°F-11.2°C 6.4°F-14.2°C 78% 2.3 mph WSW3.7 kmh WSW 6.9 mph11.1 kmh 29.56 in1001.0 mb - 0.00 in0.0 mm 0.00 in0.0 mm
11:30 AM 11.8°F-11.2°C 6.0°F-14.4°C 77% 2.3 mph WNW3.7 kmh WNW 4.6 mph7.4 kmh 29.56 in1001.0 mb - 0.00 in0.0 mm 0.00 in0.0 mm
11:45 AM 12.2°F-11.0°C 6.4°F-14.2°C 77% 1.2 mph NNW1.9 kmh NNW 1.2 mph1.9 kmh 29.56 in1001.0 mb - 0.00 in0.0 mm 0.00 in0.0 mm
12:00 PM 12.4°F-10.9°C 6.0°F-14.4°C 75% 2.3 mph NW3.7 kmh NW 5.8 mph9.3 kmh 29.56 in1001.0 mb - 0.00 in0.0 mm 0.00 in0.0 mm
12:15 PM 12.9°F-10.6°C 7.0°F-13.9°C 77% 2.3 mph N3.7 kmh N 4.6 mph7.4 kmh 29.56 in1001.0 mb - 0.00 in0.0 mm 0.00 in0.0 mm
12:30 PM 12.7°F-10.7°C 6.2°F-14.3°C 75% Calm Calm 3.5 mph5.6 kmh 29.55 in1000.7 mb - 0.00 in0.0 mm 0.00 in0.0 mm
12:45 PM 13.1°F-10.5°C 6.9°F-13.9°C 76% 2.3 mph WNW3.7 kmh WNW 4.6 mph7.4 kmh 29.55 in1000.7 mb - 0.00 in0.0 mm 0.00 in0.0 mm
01:00 PM 12.9°F-10.6°C 5.6°F-14.7°C 72% 3.5 mph NNW5.6 kmh NNW 4.6 mph7.4 kmh 29.55 in1000.7 mb - 0.00 in0.0 mm 0.00 in0.0 mm
01:15 PM 15.5°F-9.2°C 8.4°F-13.1°C 73% Calm Calm 1.2 mph1.9 kmh 29.55 in1000.7 mb - 0.00 in0.0 mm 0.00 in0.0 mm
01:30 PM 18.1°F-7.7°C 7.2°F-13.8°C 62% 1.2 mph NW1.9 kmh NW -- 29.55 in1000.7 mb - 0.00 in0.0 mm 0.00 in0.0 mm
01:45 PM 19.4°F-7.0°C 7.4°F-13.7°C 59% 2.3 mph NW3.7 kmh NW 3.5 mph5.6 kmh 29.55 in1000.7 mb - 0.00 in0.0 mm 0.00 in0.0 mm
02:00 PM 19.3°F-7.1°C 9.1°F-12.7°C 64% Calm Calm -- 29.54 in1000.3 mb - 0.00 in0.0 mm 0.00 in0.0 mm
02:15 PM 19.9°F-6.7°C 8.3°F-13.2°C 60% 1.2 mph W1.9 kmh W 2.3 mph3.7 kmh 29.55 in1000.7 mb - 0.00 in0.0 mm 0.00 in0.0 mm
02:30 PM 18.4°F-7.6°C 7.6°F-13.6°C 62% 2.3 mph NW3.7 kmh NW 4.6 mph7.4 kmh 29.55 in1000.7 mb - 0.00 in0.0 mm 0.00 in0.0 mm
02:45 PM 17.9°F-7.8°C 6.4°F-14.2°C 60% 1.2 mph NW1.9 kmh NW -- 29.54 in1000.3 mb - 0.00 in0.0 mm 0.00 in0.0 mm
03:00 PM 17.9°F-7.8°C 6.4°F-14.2°C 60% 3.5 mph SW5.6 kmh SW 4.6 mph7.4 kmh 29.54 in1000.3 mb - 0.00 in0.0 mm 0.00 in0.0 mm
03:15 PM 16.3°F-8.7°C 6.2°F-14.3°C 64% Calm Calm -- 29.56 in1001.0 mb - 0.00 in0.0 mm 0.00 in0.0 mm
03:30 PM 16.3°F-8.7°C 6.2°F-14.3°C 64% Calm Calm -- 29.57 in1001.4 mb - 0.00 in0.0 mm 0.00 in0.0 mm
03:45 PM 15.8°F-9.0°C 6.1°F-14.4°C 65% Calm Calm -- 29.57 in1001.4 mb - 0.00 in0.0 mm 0.00 in0.0 mm
04:00 PM 14.5°F-9.7°C 4.2°F-15.4°C 63% Calm Calm 1.2 mph1.9 kmh 29.58 in1001.7 mb - 0.00 in0.0 mm 0.00 in0.0 mm
04:15 PM 14.2°F-9.9°C 4.9°F-15.1°C 66% Calm Calm -- 29.59 in1002.0 mb - 0.00 in0.0 mm 0.00 in0.0 mm
04:30 PM 13.8°F-10.1°C 5.2°F-14.9°C 68% Calm Calm -- 29.60 in1002.4 mb - 0.00 in0.0 mm 0.00 in0.0 mm
04:45 PM 13.1°F-10.5°C 4.8°F-15.1°C 69% Calm Calm 1.2 mph1.9 kmh 29.61 in1002.7 mb - 0.00 in0.0 mm 0.00 in0.0 mm
05:00 PM 12.7°F-10.7°C 4.4°F-15.3°C 69% Calm Calm 1.2 mph1.9 kmh 29.62 in1003.0 mb - 0.00 in0.0 mm 0.00 in0.0 mm
05:15 PM 12.4°F-10.9°C 3.8°F-15.7°C 68% Calm Calm -- 29.64 in1003.7 mb - 0.00 in0.0 mm 0.00 in0.0 mm
05:30 PM 11.8°F-11.2°C 3.6°F-15.8°C 69% Calm Calm -- 29.65 in1004.1 mb - 0.00 in0.0 mm 0.00 in0.0 mm
05:45 PM 11.5°F-11.4°C 3.6°F-15.8°C 70% Calm Calm 1.2 mph1.9 kmh 29.65 in1004.1 mb - 0.00 in0.0 mm 0.00 in0.0 mm
06:00 PM 11.3°F-11.5°C 3.7°F-15.7°C 71% Calm Calm -- 29.65 in1004.1 mb - 0.00 in0.0 mm 0.00 in0.0 mm
06:15 PM 11.1°F-11.6°C 4.4°F-15.3°C 74% Calm Calm -- 29.67 in1004.7 mb - 0.00 in0.0 mm 0.00 in0.0 mm
06:30 PM 10.6°F-11.9°C 4.2°F-15.4°C 75% Calm Calm -- 29.67 in1004.7 mb - 0.00 in0.0 mm 0.00 in0.0 mm
06:45 PM 10.4°F-12.0°C 3.8°F-15.7°C 74% Calm Calm -- 29.68 in1005.1 mb - 0.00 in0.0 mm 0.00 in0.0 mm
07:00 PM 10.4°F-12.0°C 4.3°F-15.4°C 76% Calm Calm -- 29.69 in1005.4 mb - 0.00 in0.0 mm 0.00 in0.0 mm
07:15 PM 10.2°F-12.1°C 4.7°F-15.2°C 78% Calm Calm -- 29.71 in1006.1 mb - 0.00 in0.0 mm 0.00 in0.0 mm
07:30 PM 9.7°F-12.4°C 5.0°F-15.0°C 81% Calm Calm -- 29.70 in1005.8 mb - 0.00 in0.0 mm 0.00 in0.0 mm
07:45 PM 9.5°F-12.5°C 5.4°F-14.8°C 83% Calm Calm -- 29.70 in1005.8 mb - 0.00 in0.0 mm 0.00 in0.0 mm
08:00 PM 9.3°F-12.6°C 4.9°F-15.1°C 82% Calm Calm -- 29.70 in1005.8 mb - 0.00 in0.0 mm 0.00 in0.0 mm
08:15 PM 9.3°F-12.6°C 4.4°F-15.3°C 80% Calm Calm -- 29.70 in1005.8 mb - 0.00 in0.0 mm 0.00 in0.0 mm
08:30 PM 9.1°F-12.7°C 4.2°F-15.4°C 80% Calm Calm -- 29.70 in1005.8 mb - 0.00 in0.0 mm 0.00 in0.0 mm
08:45 PM 9.0°F-12.8°C 3.8°F-15.7°C 79% Calm Calm -- 29.71 in1006.1 mb - 0.00 in0.0 mm 0.00 in0.0 mm
09:00 PM 8.6°F-13.0°C 3.4°F-15.9°C 79% Calm Calm -- 29.71 in1006.1 mb - 0.00 in0.0 mm 0.00 in0.0 mm
09:15 PM 8.4°F-13.1°C 3.5°F-15.8°C 80% Calm Calm -- 29.72 in1006.4 mb - 0.00 in0.0 mm 0.00 in0.0 mm
09:30 PM 8.2°F-13.2°C 3.3°F-15.9°C 80% Calm Calm 1.2 mph1.9 kmh 29.71 in1006.1 mb - 0.00 in0.0 mm 0.00 in0.0 mm
09:45 PM 7.9°F-13.4°C 3.0°F-16.1°C 80% Calm Calm -- 29.72 in1006.4 mb - 0.00 in0.0 mm 0.00 in0.0 mm
10:00 PM 7.7°F-13.5°C 3.4°F-15.9°C 82% Calm Calm 1.2 mph1.9 kmh 29.72 in1006.4 mb - 0.00 in0.0 mm 0.00 in0.0 mm
10:15 PM 7.5°F-13.6°C 3.4°F-15.9°C 83% Calm Calm -- 29.72 in1006.4 mb - 0.00 in0.0 mm 0.00 in0.0 mm
10:30 PM 7.3°F-13.7°C 3.2°F-16.0°C 83% Calm Calm 1.2 mph1.9 kmh 29.73 in1006.8 mb - 0.00 in0.0 mm 0.00 in0.0 mm
10:45 PM 7.2°F-13.8°C 2.6°F-16.3°C 81% Calm Calm -- 29.73 in1006.8 mb - 0.00 in0.0 mm 0.00 in0.0 mm
11:00 PM 6.8°F-14.0°C 2.5°F-16.4°C 82% Calm Calm -- 29.74 in1007.1 mb - 0.00 in0.0 mm 0.00 in0.0 mm
11:15 PM 6.4°F-14.2°C 2.1°F-16.6°C 82% 1.2 mph NW1.9 kmh NW 2.3 mph3.7 kmh 29.74 in1007.1 mb - 0.00 in0.0 mm 0.00 in0.0 mm
11:30 PM 6.1°F-14.4°C 2.0°F-16.7°C 83% Calm Calm 1.2 mph1.9 kmh 29.74 in1007.1 mb - 0.00 in0.0 mm 0.00 in0.0 mm
11:45 PM 5.9°F-14.5°C 2.1°F-16.6°C 84% Calm Calm 2.3 mph3.7 kmh 29.74 in1007.1 mb - 0.00 in0.0 mm 0.00 in0.0 mm